sensor_id;sensor_type;location;lat;lon;timestamp;P1;durP1;ratioP1;P2;durP2;ratioP2
17177;SDS011;8704;52.006;4.374;2023-05-31T00:02:18;8.35;;;5.35;;
17177;SDS011;8704;52.006;4.374;2023-05-31T00:04:46;6.93;;;5.28;;
17177;SDS011;8704;52.006;4.374;2023-05-31T00:07:15;8.48;;;5.72;;
17177;SDS011;8704;52.006;4.374;2023-05-31T00:09:43;6.88;;;4.78;;
17177;SDS011;8704;52.006;4.374;2023-05-31T00:12:11;10.45;;;5.82;;
17177;SDS011;8704;52.006;4.374;2023-05-31T00:14:39;7.30;;;5.65;;
17177;SDS011;8704;52.006;4.374;2023-05-31T00:17:07;9.18;;;6.18;;
17177;SDS011;8704;52.006;4.374;2023-05-31T00:19:38;8.10;;;5.88;;
17177;SDS011;8704;52.006;4.374;2023-05-31T00:22:06;8.55;;;6.00;;
17177;SDS011;8704;52.006;4.374;2023-05-31T00:24:35;8.77;;;6.30;;
17177;SDS011;8704;52.006;4.374;2023-05-31T00:27:03;8.57;;;6.80;;
17177;SDS011;8704;52.006;4.374;2023-05-31T00:29:32;7.88;;;6.32;;
17177;SDS011;8704;52.006;4.374;2023-05-31T00:32:00;8.38;;;6.18;;
17177;SDS011;8704;52.006;4.374;2023-05-31T00:34:28;9.55;;;6.25;;
17177;SDS011;8704;52.006;4.374;2023-05-31T00:36:56;6.93;;;6.05;;
17177;SDS011;8704;52.006;4.374;2023-05-31T00:39:24;9.95;;;6.38;;
17177;SDS011;8704;52.006;4.374;2023-05-31T00:41:53;8.60;;;5.95;;
17177;SDS011;8704;52.006;4.374;2023-05-31T00:44:21;9.02;;;5.90;;
17177;SDS011;8704;52.006;4.374;2023-05-31T00:46:49;10.80;;;6.13;;
17177;SDS011;8704;52.006;4.374;2023-05-31T00:49:18;9.40;;;6.70;;
17177;SDS011;8704;52.006;4.374;2023-05-31T00:51:46;9.73;;;6.28;;
17177;SDS011;8704;52.006;4.374;2023-05-31T00:54:14;9.25;;;6.25;;
17177;SDS011;8704;52.006;4.374;2023-05-31T00:56:42;10.77;;;6.68;;
17177;SDS011;8704;52.006;4.374;2023-05-31T00:59:12;10.45;;;7.57;;
17177;SDS011;8704;52.006;4.374;2023-05-31T01:01:41;9.20;;;6.43;;
17177;SDS011;8704;52.006;4.374;2023-05-31T01:04:09;10.30;;;7.03;;
17177;SDS011;8704;52.006;4.374;2023-05-31T01:06:38;9.55;;;7.45;;
17177;SDS011;8704;52.006;4.374;2023-05-31T01:09:06;10.95;;;7.55;;
17177;SDS011;8704;52.006;4.374;2023-05-31T01:11:38;10.20;;;6.50;;
17177;SDS011;8704;52.006;4.374;2023-05-31T01:14:20;9.40;;;6.40;;
17177;SDS011;8704;52.006;4.374;2023-05-31T01:16:54;8.77;;;6.40;;
17177;SDS011;8704;52.006;4.374;2023-05-31T01:19:36;10.20;;;7.40;;
17177;SDS011;8704;52.006;4.374;2023-05-31T01:22:17;10.93;;;6.97;;
17177;SDS011;8704;52.006;4.374;2023-05-31T01:24:59;12.45;;;7.65;;
17177;SDS011;8704;52.006;4.374;2023-05-31T01:27:43;8.25;;;6.80;;
17177;SDS011;8704;52.006;4.374;2023-05-31T01:30:13;11.02;;;7.68;;
17177;SDS011;8704;52.006;4.374;2023-05-31T01:32:43;11.07;;;7.97;;
17177;SDS011;8704;52.006;4.374;2023-05-31T01:35:13;11.85;;;8.32;;
17177;SDS011;8704;52.006;4.374;2023-05-31T01:37:41;9.32;;;7.63;;
17177;SDS011;8704;52.006;4.374;2023-05-31T01:40:09;9.77;;;8.00;;
17177;SDS011;8704;52.006;4.374;2023-05-31T01:42:39;11.00;;;7.32;;
17177;SDS011;8704;52.006;4.374;2023-05-31T01:45:09;10.95;;;7.75;;
17177;SDS011;8704;52.006;4.374;2023-05-31T01:47:39;12.88;;;7.03;;
17177;SDS011;8704;52.006;4.374;2023-05-31T01:50:09;10.48;;;7.63;;
17177;SDS011;8704;52.006;4.374;2023-05-31T01:52:40;10.88;;;7.22;;
17177;SDS011;8704;52.006;4.374;2023-05-31T01:55:08;11.98;;;7.90;;
17177;SDS011;8704;52.006;4.374;2023-05-31T01:57:37;11.23;;;7.75;;
17177;SDS011;8704;52.006;4.374;2023-05-31T02:00:07;9.15;;;7.60;;
17177;SDS011;8704;52.006;4.374;2023-05-31T02:02:38;12.60;;;8.27;;
17177;SDS011;8704;52.006;4.374;2023-05-31T02:05:09;12.48;;;8.50;;
17177;SDS011;8704;52.006;4.374;2023-05-31T02:07:39;11.10;;;8.27;;
17177;SDS011;8704;52.006;4.374;2023-05-31T02:10:08;12.55;;;7.63;;
17177;SDS011;8704;52.006;4.374;2023-05-31T02:12:37;10.63;;;7.53;;
17177;SDS011;8704;52.006;4.374;2023-05-31T02:15:06;11.27;;;7.65;;
17177;SDS011;8704;52.006;4.374;2023-05-31T02:17:38;11.20;;;8.07;;
17177;SDS011;8704;52.006;4.374;2023-05-31T02:20:09;11.02;;;7.72;;
17177;SDS011;8704;52.006;4.374;2023-05-31T02:22:39;9.63;;;7.50;;
17177;SDS011;8704;52.006;4.374;2023-05-31T02:25:08;9.02;;;7.15;;
17177;SDS011;8704;52.006;4.374;2023-05-31T02:27:37;10.63;;;7.28;;
17177;SDS011;8704;52.006;4.374;2023-05-31T02:30:06;12.73;;;7.93;;
17177;SDS011;8704;52.006;4.374;2023-05-31T02:32:35;11.00;;;7.50;;
17177;SDS011;8704;52.006;4.374;2023-05-31T02:35:07;14.20;;;8.00;;
17177;SDS011;8704;52.006;4.374;2023-05-31T02:37:37;10.52;;;7.60;;
17177;SDS011;8704;52.006;4.374;2023-05-31T02:40:06;11.27;;;8.35;;
17177;SDS011;8704;52.006;4.374;2023-05-31T02:42:35;11.75;;;6.60;;
17177;SDS011;8704;52.006;4.374;2023-05-31T02:45:05;8.68;;;6.90;;
17177;SDS011;8704;52.006;4.374;2023-05-31T02:47:35;11.02;;;7.57;;
17177;SDS011;8704;52.006;4.374;2023-05-31T02:50:06;10.57;;;7.63;;
17177;SDS011;8704;52.006;4.374;2023-05-31T02:52:35;12.25;;;7.38;;
17177;SDS011;8704;52.006;4.374;2023-05-31T02:55:04;8.82;;;6.85;;
17177;SDS011;8704;52.006;4.374;2023-05-31T02:57:32;11.88;;;7.18;;
17177;SDS011;8704;52.006;4.374;2023-05-31T03:00:02;10.93;;;7.45;;
17177;SDS011;8704;52.006;4.374;2023-05-31T03:02:37;8.45;;;6.97;;
17177;SDS011;8704;52.006;4.374;2023-05-31T03:05:07;9.23;;;7.18;;
17177;SDS011;8704;52.006;4.374;2023-05-31T03:07:36;9.82;;;7.15;;
17177;SDS011;8704;52.006;4.374;2023-05-31T03:10:04;11.73;;;7.13;;
17177;SDS011;8704;52.006;4.374;2023-05-31T03:12:34;11.05;;;7.15;;
17177;SDS011;8704;52.006;4.374;2023-05-31T03:15:03;11.02;;;7.45;;
17177;SDS011;8704;52.006;4.374;2023-05-31T03:17:31;12.80;;;7.22;;
17177;SDS011;8704;52.006;4.374;2023-05-31T03:20:00;9.02;;;6.68;;
17177;SDS011;8704;52.006;4.374;2023-05-31T03:22:29;12.90;;;7.65;;
17177;SDS011;8704;52.006;4.374;2023-05-31T03:24:57;10.60;;;7.70;;
17177;SDS011;8704;52.006;4.374;2023-05-31T03:27:25;11.18;;;7.93;;
17177;SDS011;8704;52.006;4.374;2023-05-31T03:29:53;10.98;;;7.45;;
17177;SDS011;8704;52.006;4.374;2023-05-31T03:32:21;11.65;;;8.02;;
17177;SDS011;8704;52.006;4.374;2023-05-31T03:34:49;10.68;;;8.20;;
17177;SDS011;8704;52.006;4.374;2023-05-31T03:37:17;11.50;;;7.97;;
17177;SDS011;8704;52.006;4.374;2023-05-31T03:39:47;9.90;;;7.65;;
17177;SDS011;8704;52.006;4.374;2023-05-31T03:42:15;11.65;;;7.45;;
17177;SDS011;8704;52.006;4.374;2023-05-31T03:44:43;10.95;;;7.55;;
17177;SDS011;8704;52.006;4.374;2023-05-31T03:47:11;11.85;;;7.32;;
17177;SDS011;8704;52.006;4.374;2023-05-31T03:49:39;11.75;;;7.93;;
17177;SDS011;8704;52.006;4.374;2023-05-31T03:52:08;11.20;;;8.80;;
17177;SDS011;8704;52.006;4.374;2023-05-31T03:54:39;11.27;;;7.70;;
17177;SDS011;8704;52.006;4.374;2023-05-31T03:57:08;10.20;;;7.03;;
17177;SDS011;8704;52.006;4.374;2023-05-31T03:59:36;10.85;;;7.90;;
17177;SDS011;8704;52.006;4.374;2023-05-31T04:02:05;11.15;;;7.40;;
17177;SDS011;8704;52.006;4.374;2023-05-31T04:04:33;10.30;;;7.90;;
17177;SDS011;8704;52.006;4.374;2023-05-31T04:07:01;11.30;;;8.23;;
17177;SDS011;8704;52.006;4.374;2023-05-31T04:09:29;11.77;;;8.57;;
17177;SDS011;8704;52.006;4.374;2023-05-31T04:11:57;13.68;;;8.35;;
17177;SDS011;8704;52.006;4.374;2023-05-31T04:14:26;10.80;;;8.30;;
17177;SDS011;8704;52.006;4.374;2023-05-31T04:16:54;12.73;;;8.75;;
17177;SDS011;8704;52.006;4.374;2023-05-31T04:19:22;12.45;;;8.40;;
17177;SDS011;8704;52.006;4.374;2023-05-31T04:21:50;11.70;;;8.75;;
17177;SDS011;8704;52.006;4.374;2023-05-31T04:24:18;13.93;;;9.35;;
17177;SDS011;8704;52.006;4.374;2023-05-31T04:26:46;13.93;;;8.82;;
17177;SDS011;8704;52.006;4.374;2023-05-31T04:29:14;11.60;;;8.73;;
17177;SDS011;8704;52.006;4.374;2023-05-31T04:31:45;15.95;;;9.40;;
17177;SDS011;8704;52.006;4.374;2023-05-31T04:34:17;13.40;;;7.88;;
17177;SDS011;8704;52.006;4.374;2023-05-31T04:36:46;12.68;;;9.95;;
17177;SDS011;8704;52.006;4.374;2023-05-31T04:39:16;15.63;;;8.60;;
17177;SDS011;8704;52.006;4.374;2023-05-31T04:41:46;14.38;;;8.82;;
17177;SDS011;8704;52.006;4.374;2023-05-31T04:44:14;12.30;;;9.75;;
17177;SDS011;8704;52.006;4.374;2023-05-31T04:46:42;12.88;;;9.25;;
17177;SDS011;8704;52.006;4.374;2023-05-31T04:49:12;15.02;;;10.25;;
17177;SDS011;8704;52.006;4.374;2023-05-31T04:51:40;12.98;;;9.48;;
17177;SDS011;8704;52.006;4.374;2023-05-31T04:54:08;13.63;;;9.93;;
17177;SDS011;8704;52.006;4.374;2023-05-31T04:56:36;16.25;;;11.70;;
17177;SDS011;8704;52.006;4.374;2023-05-31T04:59:04;14.57;;;10.85;;
17177;SDS011;8704;52.006;4.374;2023-05-31T05:01:34;14.40;;;11.15;;
17177;SDS011;8704;52.006;4.374;2023-05-31T05:04:02;14.20;;;10.55;;
17177;SDS011;8704;52.006;4.374;2023-05-31T05:06:32;13.40;;;10.60;;
17177;SDS011;8704;52.006;4.374;2023-05-31T05:09:03;14.65;;;10.73;;
17177;SDS011;8704;52.006;4.374;2023-05-31T05:11:32;14.75;;;11.07;;
17177;SDS011;8704;52.006;4.374;2023-05-31T05:14:00;16.33;;;11.18;;
17177;SDS011;8704;52.006;4.374;2023-05-31T05:16:28;17.65;;;11.82;;
17177;SDS011;8704;52.006;4.374;2023-05-31T05:18:57;18.45;;;11.43;;
17177;SDS011;8704;52.006;4.374;2023-05-31T05:21:25;17.45;;;12.48;;
17177;SDS011;8704;52.006;4.374;2023-05-31T05:23:56;16.73;;;11.63;;
17177;SDS011;8704;52.006;4.374;2023-05-31T05:26:24;16.17;;;11.57;;
17177;SDS011;8704;52.006;4.374;2023-05-31T05:28:52;14.38;;;10.93;;
17177;SDS011;8704;52.006;4.374;2023-05-31T05:31:20;16.85;;;12.02;;
17177;SDS011;8704;52.006;4.374;2023-05-31T05:33:48;15.90;;;10.80;;
17177;SDS011;8704;52.006;4.374;2023-05-31T05:36:17;17.17;;;11.70;;
17177;SDS011;8704;52.006;4.374;2023-05-31T05:38:46;17.40;;;12.20;;
17177;SDS011;8704;52.006;4.374;2023-05-31T05:41:15;17.10;;;11.68;;
17177;SDS011;8704;52.006;4.374;2023-05-31T05:43:43;13.25;;;9.95;;
17177;SDS011;8704;52.006;4.374;2023-05-31T05:46:11;17.98;;;12.48;;
17177;SDS011;8704;52.006;4.374;2023-05-31T05:48:39;15.68;;;12.32;;
17177;SDS011;8704;52.006;4.374;2023-05-31T05:51:07;19.42;;;12.18;;
17177;SDS011;8704;52.006;4.374;2023-05-31T05:53:35;15.98;;;12.93;;
17177;SDS011;8704;52.006;4.374;2023-05-31T05:56:03;16.65;;;11.95;;
17177;SDS011;8704;52.006;4.374;2023-05-31T05:58:33;16.17;;;11.68;;
17177;SDS011;8704;52.006;4.374;2023-05-31T06:01:01;17.23;;;11.55;;
17177;SDS011;8704;52.006;4.374;2023-05-31T06:03:29;18.48;;;13.27;;
17177;SDS011;8704;52.006;4.374;2023-05-31T06:05:58;17.98;;;12.25;;
17177;SDS011;8704;52.006;4.374;2023-05-31T06:08:26;17.30;;;12.55;;
17177;SDS011;8704;52.006;4.374;2023-05-31T06:10:54;17.20;;;12.93;;
17177;SDS011;8704;52.006;4.374;2023-05-31T06:13:22;18.38;;;12.27;;
17177;SDS011;8704;52.006;4.374;2023-05-31T06:15:51;17.55;;;12.75;;
17177;SDS011;8704;52.006;4.374;2023-05-31T06:18:19;17.08;;;12.50;;
17177;SDS011;8704;52.006;4.374;2023-05-31T06:20:47;17.40;;;12.25;;
17177;SDS011;8704;52.006;4.374;2023-05-31T06:23:15;19.98;;;12.15;;
17177;SDS011;8704;52.006;4.374;2023-05-31T06:25:43;18.20;;;13.15;;
17177;SDS011;8704;52.006;4.374;2023-05-31T06:28:11;19.50;;;13.48;;
17177;SDS011;8704;52.006;4.374;2023-05-31T06:30:39;18.38;;;13.13;;
17177;SDS011;8704;52.006;4.374;2023-05-31T06:33:09;19.58;;;13.30;;
17177;SDS011;8704;52.006;4.374;2023-05-31T06:35:37;17.23;;;13.63;;
17177;SDS011;8704;52.006;4.374;2023-05-31T06:38:07;18.27;;;13.13;;
17177;SDS011;8704;52.006;4.374;2023-05-31T06:40:41;17.35;;;13.25;;
17177;SDS011;8704;52.006;4.374;2023-05-31T06:43:09;20.17;;;13.65;;
17177;SDS011;8704;52.006;4.374;2023-05-31T06:45:37;20.60;;;14.43;;
17177;SDS011;8704;52.006;4.374;2023-05-31T06:48:09;20.83;;;14.05;;
17177;SDS011;8704;52.006;4.374;2023-05-31T06:50:37;20.63;;;13.30;;
17177;SDS011;8704;52.006;4.374;2023-05-31T06:53:06;19.45;;;13.45;;
17177;SDS011;8704;52.006;4.374;2023-05-31T06:55:35;17.85;;;13.15;;
17177;SDS011;8704;52.006;4.374;2023-05-31T06:58:05;19.92;;;13.32;;
17177;SDS011;8704;52.006;4.374;2023-05-31T07:00:33;18.67;;;12.90;;
17177;SDS011;8704;52.006;4.374;2023-05-31T07:03:01;19.48;;;13.02;;
17177;SDS011;8704;52.006;4.374;2023-05-31T07:05:31;21.02;;;14.05;;
17177;SDS011;8704;52.006;4.374;2023-05-31T07:07:59;18.30;;;12.80;;
17177;SDS011;8704;52.006;4.374;2023-05-31T07:10:27;18.45;;;11.90;;
17177;SDS011;8704;52.006;4.374;2023-05-31T07:12:55;17.90;;;12.63;;
17177;SDS011;8704;52.006;4.374;2023-05-31T07:15:23;16.52;;;12.27;;
17177;SDS011;8704;52.006;4.374;2023-05-31T07:17:51;20.10;;;12.70;;
17177;SDS011;8704;52.006;4.374;2023-05-31T07:20:19;16.13;;;12.02;;
17177;SDS011;8704;52.006;4.374;2023-05-31T07:22:49;16.65;;;12.07;;
17177;SDS011;8704;52.006;4.374;2023-05-31T07:25:17;17.50;;;11.35;;
17177;SDS011;8704;52.006;4.374;2023-05-31T07:27:45;15.93;;;11.35;;
17177;SDS011;8704;52.006;4.374;2023-05-31T07:30:13;18.10;;;12.45;;
17177;SDS011;8704;52.006;4.374;2023-05-31T07:32:41;20.98;;;12.73;;
17177;SDS011;8704;52.006;4.374;2023-05-31T07:35:09;18.15;;;11.65;;
17177;SDS011;8704;52.006;4.374;2023-05-31T07:37:39;17.00;;;12.05;;
17177;SDS011;8704;52.006;4.374;2023-05-31T07:40:09;19.15;;;12.05;;
17177;SDS011;8704;52.006;4.374;2023-05-31T07:42:37;20.50;;;11.82;;
17177;SDS011;8704;52.006;4.374;2023-05-31T07:45:05;17.80;;;11.82;;
17177;SDS011;8704;52.006;4.374;2023-05-31T07:47:34;15.07;;;10.88;;
17177;SDS011;8704;52.006;4.374;2023-05-31T07:50:03;16.77;;;11.80;;
17177;SDS011;8704;52.006;4.374;2023-05-31T07:52:31;19.60;;;11.52;;
17177;SDS011;8704;52.006;4.374;2023-05-31T07:54:59;13.93;;;10.77;;
17177;SDS011;8704;52.006;4.374;2023-05-31T07:57:31;18.15;;;11.98;;
17177;SDS011;8704;52.006;4.374;2023-05-31T07:59:59;15.65;;;11.93;;
17177;SDS011;8704;52.006;4.374;2023-05-31T08:02:27;18.38;;;10.95;;
17177;SDS011;8704;52.006;4.374;2023-05-31T08:04:55;14.07;;;10.57;;
17177;SDS011;8704;52.006;4.374;2023-05-31T08:07:28;16.65;;;11.00;;
17177;SDS011;8704;52.006;4.374;2023-05-31T08:09:56;15.18;;;10.63;;
17177;SDS011;8704;52.006;4.374;2023-05-31T08:12:24;16.45;;;11.43;;
17177;SDS011;8704;52.006;4.374;2023-05-31T08:17:26;16.50;;;11.48;;
17177;SDS011;8704;52.006;4.374;2023-05-31T08:19:54;14.00;;;10.80;;
17177;SDS011;8704;52.006;4.374;2023-05-31T08:22:23;17.77;;;11.25;;
17177;SDS011;8704;52.006;4.374;2023-05-31T08:24:51;16.63;;;10.10;;
17177;SDS011;8704;52.006;4.374;2023-05-31T08:27:19;15.80;;;10.93;;
17177;SDS011;8704;52.006;4.374;2023-05-31T08:29:48;15.13;;;10.77;;
17177;SDS011;8704;52.006;4.374;2023-05-31T08:32:17;17.42;;;11.15;;
17177;SDS011;8704;52.006;4.374;2023-05-31T08:34:45;15.60;;;10.32;;
17177;SDS011;8704;52.006;4.374;2023-05-31T08:37:13;14.25;;;10.30;;
17177;SDS011;8704;52.006;4.374;2023-05-31T08:39:41;15.93;;;11.13;;
17177;SDS011;8704;52.006;4.374;2023-05-31T08:42:10;17.20;;;10.27;;
17177;SDS011;8704;52.006;4.374;2023-05-31T08:44:41;14.65;;;9.93;;
17177;SDS011;8704;52.006;4.374;2023-05-31T08:47:12;15.38;;;10.18;;
17177;SDS011;8704;52.006;4.374;2023-05-31T08:49:46;16.08;;;10.30;;
17177;SDS011;8704;52.006;4.374;2023-05-31T08:52:15;17.10;;;10.55;;
17177;SDS011;8704;52.006;4.374;2023-05-31T08:54:45;16.98;;;10.80;;
17177;SDS011;8704;52.006;4.374;2023-05-31T08:57:14;15.32;;;10.55;;
17177;SDS011;8704;52.006;4.374;2023-05-31T08:59:43;12.50;;;10.07;;
17177;SDS011;8704;52.006;4.374;2023-05-31T09:02:12;16.52;;;10.68;;
17177;SDS011;8704;52.006;4.374;2023-05-31T09:04:41;11.70;;;9.32;;
17177;SDS011;8704;52.006;4.374;2023-05-31T09:07:11;15.20;;;9.77;;
17177;SDS011;8704;52.006;4.374;2023-05-31T09:09:39;15.00;;;9.57;;
17177;SDS011;8704;52.006;4.374;2023-05-31T09:12:07;14.02;;;9.60;;
17177;SDS011;8704;52.006;4.374;2023-05-31T09:14:36;14.40;;;9.95;;
17177;SDS011;8704;52.006;4.374;2023-05-31T09:17:05;14.50;;;9.40;;
17177;SDS011;8704;52.006;4.374;2023-05-31T09:19:33;15.65;;;10.60;;
17177;SDS011;8704;52.006;4.374;2023-05-31T09:22:01;15.48;;;9.85;;
17177;SDS011;8704;52.006;4.374;2023-05-31T09:24:32;16.88;;;9.80;;
17177;SDS011;8704;52.006;4.374;2023-05-31T09:27:00;14.85;;;10.23;;
17177;SDS011;8704;52.006;4.374;2023-05-31T09:29:28;14.57;;;9.50;;
17177;SDS011;8704;52.006;4.374;2023-05-31T09:32:09;12.52;;;9.43;;
17177;SDS011;8704;52.006;4.374;2023-05-31T09:34:38;13.15;;;9.63;;
17177;SDS011;8704;52.006;4.374;2023-05-31T09:37:06;14.25;;;9.57;;
17177;SDS011;8704;52.006;4.374;2023-05-31T09:39:36;17.30;;;9.68;;
17177;SDS011;8704;52.006;4.374;2023-05-31T09:42:11;16.38;;;10.00;;
17177;SDS011;8704;52.006;4.374;2023-05-31T09:44:46;16.77;;;9.48;;
17177;SDS011;8704;52.006;4.374;2023-05-31T09:47:15;17.92;;;9.20;;
17177;SDS011;8704;52.006;4.374;2023-05-31T09:49:43;15.63;;;9.60;;
17177;SDS011;8704;52.006;4.374;2023-05-31T09:52:11;11.35;;;9.10;;
17177;SDS011;8704;52.006;4.374;2023-05-31T09:54:41;14.05;;;9.43;;
17177;SDS011;8704;52.006;4.374;2023-05-31T09:57:16;13.63;;;9.07;;
17177;SDS011;8704;52.006;4.374;2023-05-31T09:59:56;13.52;;;8.80;;
17177;SDS011;8704;52.006;4.374;2023-05-31T10:02:25;11.07;;;8.35;;
17177;SDS011;8704;52.006;4.374;2023-05-31T10:04:54;18.88;;;9.55;;
17177;SDS011;8704;52.006;4.374;2023-05-31T10:07:23;13.38;;;8.65;;
17177;SDS011;8704;52.006;4.374;2023-05-31T10:09:55;15.80;;;8.77;;
17177;SDS011;8704;52.006;4.374;2023-05-31T10:12:24;16.65;;;8.88;;
17177;SDS011;8704;52.006;4.374;2023-05-31T10:14:54;13.30;;;8.90;;
17177;SDS011;8704;52.006;4.374;2023-05-31T10:17:27;12.90;;;9.00;;
17177;SDS011;8704;52.006;4.374;2023-05-31T10:19:58;13.40;;;7.85;;
17177;SDS011;8704;52.006;4.374;2023-05-31T10:22:31;16.83;;;8.10;;
17177;SDS011;8704;52.006;4.374;2023-05-31T10:25:06;11.68;;;7.18;;
17177;SDS011;8704;52.006;4.374;2023-05-31T10:27:37;11.43;;;7.57;;
17177;SDS011;8704;52.006;4.374;2023-05-31T10:30:07;14.10;;;7.88;;
17177;SDS011;8704;52.006;4.374;2023-05-31T10:32:39;11.07;;;7.43;;
17177;SDS011;8704;52.006;4.374;2023-05-31T10:35:10;11.23;;;7.47;;
17177;SDS011;8704;52.006;4.374;2023-05-31T10:37:39;12.95;;;7.82;;
17177;SDS011;8704;52.006;4.374;2023-05-31T10:40:12;12.43;;;7.82;;
17177;SDS011;8704;52.006;4.374;2023-05-31T10:42:45;14.90;;;7.68;;
17177;SDS011;8704;52.006;4.374;2023-05-31T10:45:21;11.65;;;7.70;;
17177;SDS011;8704;52.006;4.374;2023-05-31T10:48:01;11.27;;;7.00;;
17177;SDS011;8704;52.006;4.374;2023-05-31T10:50:50;12.38;;;7.53;;
17177;SDS011;8704;52.006;4.374;2023-05-31T10:53:19;11.93;;;7.93;;
17177;SDS011;8704;52.006;4.374;2023-05-31T10:55:48;13.32;;;8.32;;
17177;SDS011;8704;52.006;4.374;2023-05-31T10:58:23;15.90;;;8.60;;
17177;SDS011;8704;52.006;4.374;2023-05-31T11:00:53;14.10;;;8.05;;
17177;SDS011;8704;52.006;4.374;2023-05-31T11:03:22;11.45;;;7.55;;
17177;SDS011;8704;52.006;4.374;2023-05-31T11:05:56;14.15;;;7.38;;
17177;SDS011;8704;52.006;4.374;2023-05-31T11:08:25;13.18;;;7.38;;
17177;SDS011;8704;52.006;4.374;2023-05-31T11:13:57;11.65;;;7.25;;
17177;SDS011;8704;52.006;4.374;2023-05-31T11:16:27;12.70;;;6.97;;
17177;SDS011;8704;52.006;4.374;2023-05-31T11:19:04;14.07;;;7.38;;
17177;SDS011;8704;52.006;4.374;2023-05-31T11:21:46;10.05;;;6.50;;
17177;SDS011;8704;52.006;4.374;2023-05-31T11:24:27;12.65;;;6.50;;
17177;SDS011;8704;52.006;4.374;2023-05-31T11:26:58;8.75;;;6.38;;
17177;SDS011;8704;52.006;4.374;2023-05-31T11:35:36;10.60;;;6.40;;
17177;SDS011;8704;52.006;4.374;2023-05-31T11:38:05;9.25;;;5.85;;
17177;SDS011;8704;52.006;4.374;2023-05-31T11:40:34;11.77;;;6.10;;
17177;SDS011;8704;52.006;4.374;2023-05-31T11:43:05;10.90;;;6.18;;
17177;SDS011;8704;52.006;4.374;2023-05-31T11:45:37;10.88;;;5.93;;
17177;SDS011;8704;52.006;4.374;2023-05-31T11:48:24;11.57;;;6.30;;
17177;SDS011;8704;52.006;4.374;2023-05-31T11:51:02;11.98;;;6.30;;
17177;SDS011;8704;52.006;4.374;2023-05-31T11:53:31;10.48;;;6.00;;
17177;SDS011;8704;52.006;4.374;2023-05-31T11:55:59;11.63;;;6.20;;
17177;SDS011;8704;52.006;4.374;2023-05-31T11:58:29;13.40;;;6.03;;
17177;SDS011;8704;52.006;4.374;2023-05-31T12:00:57;14.05;;;5.88;;
17177;SDS011;8704;52.006;4.374;2023-05-31T12:03:28;10.27;;;5.40;;
17177;SDS011;8704;52.006;4.374;2023-05-31T12:05:57;10.63;;;6.25;;
17177;SDS011;8704;52.006;4.374;2023-05-31T12:08:26;11.25;;;6.07;;
17177;SDS011;8704;52.006;4.374;2023-05-31T12:11:02;8.70;;;5.50;;
17177;SDS011;8704;52.006;4.374;2023-05-31T12:13:33;10.13;;;5.25;;
17177;SDS011;8704;52.006;4.374;2023-05-31T12:16:04;8.07;;;5.18;;
17177;SDS011;8704;52.006;4.374;2023-05-31T12:18:32;10.55;;;5.63;;
17177;SDS011;8704;52.006;4.374;2023-05-31T12:21:08;14.10;;;5.65;;
17177;SDS011;8704;52.006;4.374;2023-05-31T12:23:50;12.15;;;5.63;;
17177;SDS011;8704;52.006;4.374;2023-05-31T12:26:20;10.20;;;5.63;;
17177;SDS011;8704;52.006;4.374;2023-05-31T12:28:50;10.15;;;5.38;;
17177;SDS011;8704;52.006;4.374;2023-05-31T12:31:19;10.57;;;5.45;;
17177;SDS011;8704;52.006;4.374;2023-05-31T12:33:57;10.23;;;5.43;;
17177;SDS011;8704;52.006;4.374;2023-05-31T12:36:26;10.98;;;5.32;;
17177;SDS011;8704;52.006;4.374;2023-05-31T12:38:55;11.95;;;5.57;;
17177;SDS011;8704;52.006;4.374;2023-05-31T12:41:23;9.95;;;5.40;;
17177;SDS011;8704;52.006;4.374;2023-05-31T12:43:53;7.78;;;5.05;;
17177;SDS011;8704;52.006;4.374;2023-05-31T12:46:22;9.77;;;4.93;;
17177;SDS011;8704;52.006;4.374;2023-05-31T12:48:50;11.35;;;5.22;;
17177;SDS011;8704;52.006;4.374;2023-05-31T12:51:21;10.85;;;5.05;;
17177;SDS011;8704;52.006;4.374;2023-05-31T12:53:50;8.07;;;4.07;;
17177;SDS011;8704;52.006;4.374;2023-05-31T12:56:18;8.60;;;4.72;;
17177;SDS011;8704;52.006;4.374;2023-05-31T12:58:46;9.88;;;4.70;;
17177;SDS011;8704;52.006;4.374;2023-05-31T13:01:17;9.30;;;5.72;;
17177;SDS011;8704;52.006;4.374;2023-05-31T13:03:45;9.77;;;5.30;;
17177;SDS011;8704;52.006;4.374;2023-05-31T13:06:13;10.85;;;4.95;;
17177;SDS011;8704;52.006;4.374;2023-05-31T13:08:41;9.13;;;4.30;;
17177;SDS011;8704;52.006;4.374;2023-05-31T13:11:10;7.30;;;4.05;;
17177;SDS011;8704;52.006;4.374;2023-05-31T13:13:38;7.47;;;3.85;;
17177;SDS011;8704;52.006;4.374;2023-05-31T13:16:07;10.55;;;4.60;;
17177;SDS011;8704;52.006;4.374;2023-05-31T13:18:36;7.00;;;4.50;;
17177;SDS011;8704;52.006;4.374;2023-05-31T13:21:04;8.55;;;4.82;;
17177;SDS011;8704;52.006;4.374;2023-05-31T13:23:32;8.80;;;4.18;;
17177;SDS011;8704;52.006;4.374;2023-05-31T13:26:00;7.63;;;4.30;;
17177;SDS011;8704;52.006;4.374;2023-05-31T13:28:29;9.13;;;4.32;;
17177;SDS011;8704;52.006;4.374;2023-05-31T13:30:57;8.85;;;4.43;;
17177;SDS011;8704;52.006;4.374;2023-05-31T13:33:25;8.52;;;4.40;;
17177;SDS011;8704;52.006;4.374;2023-05-31T13:35:55;10.63;;;4.18;;
17177;SDS011;8704;52.006;4.374;2023-05-31T13:38:24;7.93;;;4.40;;
17177;SDS011;8704;52.006;4.374;2023-05-31T13:40:53;9.63;;;4.90;;
17177;SDS011;8704;52.006;4.374;2023-05-31T13:43:21;9.57;;;4.07;;
17177;SDS011;8704;52.006;4.374;2023-05-31T13:45:49;8.43;;;4.10;;
17177;SDS011;8704;52.006;4.374;2023-05-31T13:48:17;5.68;;;3.70;;
17177;SDS011;8704;52.006;4.374;2023-05-31T13:50:46;7.57;;;4.60;;
17177;SDS011;8704;52.006;4.374;2023-05-31T13:53:16;8.23;;;4.35;;
17177;SDS011;8704;52.006;4.374;2023-05-31T13:55:44;8.90;;;4.95;;
17177;SDS011;8704;52.006;4.374;2023-05-31T13:58:28;9.30;;;4.82;;
17177;SDS011;8704;52.006;4.374;2023-05-31T14:00:56;8.60;;;4.65;;
17177;SDS011;8704;52.006;4.374;2023-05-31T14:03:25;7.43;;;4.28;;
17177;SDS011;8704;52.006;4.374;2023-05-31T14:05:53;8.18;;;3.97;;
17177;SDS011;8704;52.006;4.374;2023-05-31T14:08:22;9.57;;;4.30;;
17177;SDS011;8704;52.006;4.374;2023-05-31T14:10:50;9.25;;;4.28;;
17177;SDS011;8704;52.006;4.374;2023-05-31T14:13:18;9.18;;;4.80;;
17177;SDS011;8704;52.006;4.374;2023-05-31T14:15:46;10.75;;;4.30;;
17177;SDS011;8704;52.006;4.374;2023-05-31T14:18:14;9.38;;;4.40;;
17177;SDS011;8704;52.006;4.374;2023-05-31T14:20:42;7.90;;;4.20;;
17177;SDS011;8704;52.006;4.374;2023-05-31T14:23:12;10.60;;;4.88;;
17177;SDS011;8704;52.006;4.374;2023-05-31T14:25:41;6.55;;;4.20;;
17177;SDS011;8704;52.006;4.374;2023-05-31T14:28:09;9.80;;;4.97;;
17177;SDS011;8704;52.006;4.374;2023-05-31T14:30:37;11.13;;;4.80;;
17177;SDS011;8704;52.006;4.374;2023-05-31T14:33:05;6.47;;;4.60;;
17177;SDS011;8704;52.006;4.374;2023-05-31T14:35:34;10.18;;;6.82;;
17177;SDS011;8704;52.006;4.374;2023-05-31T14:38:02;11.32;;;6.30;;
17177;SDS011;8704;52.006;4.374;2023-05-31T14:40:51;8.70;;;5.97;;
17177;SDS011;8704;52.006;4.374;2023-05-31T14:43:19;10.60;;;6.82;;
17177;SDS011;8704;52.006;4.374;2023-05-31T14:45:47;8.00;;;5.30;;
17177;SDS011;8704;52.006;4.374;2023-05-31T14:48:15;12.95;;;5.60;;
17177;SDS011;8704;52.006;4.374;2023-05-31T14:50:43;8.93;;;5.22;;
17177;SDS011;8704;52.006;4.374;2023-05-31T14:53:11;9.25;;;5.30;;
17177;SDS011;8704;52.006;4.374;2023-05-31T14:55:40;7.90;;;4.97;;
17177;SDS011;8704;52.006;4.374;2023-05-31T14:58:10;8.02;;;4.80;;
17177;SDS011;8704;52.006;4.374;2023-05-31T15:00:39;9.67;;;4.87;;
17177;SDS011;8704;52.006;4.374;2023-05-31T15:03:07;9.80;;;5.00;;
17177;SDS011;8704;52.006;4.374;2023-05-31T15:05:35;8.82;;;4.55;;
17177;SDS011;8704;52.006;4.374;2023-05-31T15:08:03;10.25;;;5.10;;
17177;SDS011;8704;52.006;4.374;2023-05-31T15:10:31;7.45;;;5.13;;
17177;SDS011;8704;52.006;4.374;2023-05-31T15:12:59;12.20;;;4.75;;
17177;SDS011;8704;52.006;4.374;2023-05-31T15:15:28;7.95;;;5.20;;